Time;durP1;ratioP1;P1;durP2;ratioP2;P2;SDS_P1;SDS_P2;PMS_P1;PMS_P2;Temp;Humidity;BMP_temperature;BMP_pressure;BME280_temperature;BME280_humidity;BME280_pressure;Samples;Min_cycle;Max_cycle;Signal;HPM_P1;HPM_P2
2023/12/21 00:02:18;;;;;;;2.00;1.90;;;;;;;;;;5012318;28;20269;-70
2023/12/21 00:04:45;;;;;;;2.73;1.90;;;;;;;;;;5016652;28;20258;-72
2023/12/21 00:07:13;;;;;;;4.33;2.23;;;;;;;;;;5016795;28;20209;-69
2023/12/21 00:09:40;;;;;;;4.50;2.37;;;;;;;;;;5019504;28;20196;-72
2023/12/21 00:12:07;;;;;;;2.60;1.90;;;;;;;;;;5021615;28;20227;-71
2023/12/21 00:14:35;;;;;;;2.47;2.00;;;;;;;;;;5017017;28;20211;-72
2023/12/21 00:17:02;;;;;;;2.33;2.10;;;;;;;;;;5025545;28;20203;-73
2023/12/21 00:19:29;;;;;;;2.40;1.80;;;;;;;;;;5017390;28;20212;-72
2023/12/21 00:21:57;;;;;;;2.23;2.03;;;;;;;;;;5023231;28;20227;-72
2023/12/21 00:24:24;;;;;;;4.90;2.00;;;;;;;;;;5020029;28;21070;-71
2023/12/21 00:26:51;;;;;;;2.13;1.90;;;;;;;;;;5025126;28;20211;-71
2023/12/21 00:29:18;;;;;;;2.27;2.10;;;;;;;;;;5015161;28;20269;-71
2023/12/21 00:31:46;;;;;;;2.53;1.90;;;;;;;;;;5016548;28;20237;-73
2023/12/21 00:34:14;;;;;;;4.40;2.20;;;;;;;;;;5015325;28;20235;-70
2023/12/21 00:36:42;;;;;;;5.93;2.13;;;;;;;;;;5015193;28;20203;-71
2023/12/21 00:39:10;;;;;;;2.13;1.90;;;;;;;;;;5018951;28;20206;-72
2023/12/21 00:41:37;;;;;;;4.70;2.53;;;;;;;;;;5020744;28;20230;-71
2023/12/21 00:44:04;;;;;;;2.50;1.97;;;;;;;;;;5019267;28;20257;-72
2023/12/21 00:46:32;;;;;;;2.07;1.97;;;;;;;;;;5002908;28;20698;-73
2023/12/21 00:48:59;;;;;;;4.33;2.37;;;;;;;;;;5010482;28;20206;-72
2023/12/21 00:51:26;;;;;;;2.67;1.80;;;;;;;;;;5014849;28;20571;-73
2023/12/21 00:53:54;;;;;;;4.00;2.23;;;;;;;;;;5012070;28;20227;-72
2023/12/21 00:56:21;;;;;;;5.23;2.20;;;;;;;;;;5016467;28;20195;-73
2023/12/21 00:58:48;;;;;;;3.47;1.97;;;;;;;;;;5017407;28;20203;-72
2023/12/21 01:01:15;;;;;;;1.97;1.80;;;;;;;;;;5022185;28;20230;-71
2023/12/21 01:03:43;;;;;;;2.70;2.20;;;;;;;;;;5017926;28;20261;-72
2023/12/21 01:06:10;;;;;;;2.73;1.80;;;;;;;;;;5015816;28;20215;-71
2023/12/21 01:08:37;;;;;;;3.73;1.90;;;;;;;;;;5011972;28;20238;-71
2023/12/21 01:11:05;;;;;;;2.80;1.67;;;;;;;;;;5021054;28;20227;-71
2023/12/21 01:13:33;;;;;;;2.80;1.53;;;;;;;;;;5016617;28;20230;-71
2023/12/21 01:16:00;;;;;;;1.93;1.77;;;;;;;;;;5015865;28;20599;-73
2023/12/21 01:18:28;;;;;;;2.40;1.50;;;;;;;;;;5019005;28;20210;-71
2023/12/21 01:20:55;;;;;;;2.47;1.63;;;;;;;;;;5022369;28;20226;-71
2023/12/21 01:23:23;;;;;;;2.13;1.63;;;;;;;;;;5017416;28;20210;-70
2023/12/21 01:25:50;;;;;;;2.63;1.67;;;;;;;;;;5010947;28;20203;-69
2023/12/21 01:28:17;;;;;;;2.37;1.67;;;;;;;;;;5022064;28;20549;-72
2023/12/21 01:30:44;;;;;;;1.70;1.60;;;;;;;;;;5018165;28;20314;-70
2023/12/21 01:33:12;;;;;;;3.57;1.80;;;;;;;;;;5016640;28;20230;-70
2023/12/21 01:35:39;;;;;;;2.00;1.57;;;;;;;;;;5014844;28;20322;-70
2023/12/21 01:38:06;;;;;;;2.07;1.40;;;;;;;;;;5007053;28;20202;-71
2023/12/21 01:40:34;;;;;;;2.33;1.30;;;;;;;;;;5020759;28;20226;-72
2023/12/21 01:43:01;;;;;;;1.40;1.30;;;;;;;;;;5014052;28;20325;-72
2023/12/21 01:45:28;;;;;;;1.30;1.20;;;;;;;;;;5016708;28;20234;-70
2023/12/21 01:47:56;;;;;;;2.97;1.00;;;;;;;;;;4998547;28;20210;-72
2023/12/21 01:50:23;;;;;;;1.30;1.30;;;;;;;;;;5000083;28;20199;-71
2023/12/21 01:52:53;;;;;;;1.90;1.00;;;;;;;;;;5015183;28;20210;-70
2023/12/21 01:55:20;;;;;;;1.00;1.00;;;;;;;;;;5022522;28;20226;-72
2023/12/21 01:57:47;;;;;;;0.93;0.93;;;;;;;;;;5020758;28;20234;-70
2023/12/21 02:00:16;;;;;;;1.47;1.10;;;;;;;;;;5000562;28;20207;-73
2023/12/21 02:02:43;;;;;;;2.20;1.03;;;;;;;;;;5016651;28;20215;-70
2023/12/21 02:05:11;;;;;;;1.00;1.00;;;;;;;;;;5018745;28;20234;-70
2023/12/21 02:07:38;;;;;;;1.50;1.20;;;;;;;;;;5014035;28;20210;-70
2023/12/21 02:10:05;;;;;;;1.23;1.13;;;;;;;;;;5023436;28;20203;-71
2023/12/21 02:12:33;;;;;;;1.10;1.10;;;;;;;;;;5017139;28;20234;-72
2023/12/21 02:15:00;;;;;;;3.50;1.20;;;;;;;;;;5020870;28;20222;-72
2023/12/21 02:17:28;;;;;;;1.30;1.20;;;;;;;;;;5020659;28;20266;-71
2023/12/21 02:19:55;;;;;;;1.10;1.10;;;;;;;;;;5023309;28;20234;-70
2023/12/21 02:22:25;;;;;;;1.00;1.00;;;;;;;;;;5017776;28;20233;-70
2023/12/21 02:24:52;;;;;;;1.23;1.03;;;;;;;;;;5024333;28;20643;-72
2023/12/21 02:27:19;;;;;;;1.03;1.00;;;;;;;;;;5019842;28;20215;-71
2023/12/21 02:29:47;;;;;;;1.00;1.00;;;;;;;;;;5016122;28;20302;-72
2023/12/21 02:32:14;;;;;;;0.90;0.90;;;;;;;;;;5025225;28;20682;-72
2023/12/21 02:34:41;;;;;;;1.00;1.00;;;;;;;;;;5001114;28;20281;-72
2023/12/21 02:37:08;;;;;;;1.00;1.00;;;;;;;;;;5023798;28;20199;-72
2023/12/21 02:39:36;;;;;;;1.00;1.00;;;;;;;;;;5013454;28;20245;-71
2023/12/21 02:42:03;;;;;;;1.00;1.00;;;;;;;;;;5025981;28;20250;-71
2023/12/21 02:44:31;;;;;;;0.97;0.97;;;;;;;;;;5008122;28;20213;-70
2023/12/21 02:46:58;;;;;;;1.10;1.10;;;;;;;;;;5023556;28;20206;-71
2023/12/21 02:49:26;;;;;;;1.10;1.10;;;;;;;;;;5021446;28;20556;-72
2023/12/21 02:51:55;;;;;;;1.80;1.10;;;;;;;;;;5027425;28;20262;-72
2023/12/21 02:54:22;;;;;;;1.00;1.00;;;;;;;;;;5017837;28;20226;-70
2023/12/21 02:56:49;;;;;;;1.00;1.00;;;;;;;;;;5002355;28;20204;-70
2023/12/21 02:59:17;;;;;;;1.13;1.10;;;;;;;;;;5017774;28;20213;-73
2023/12/21 03:01:44;;;;;;;1.10;1.10;;;;;;;;;;5020569;28;20601;-70
2023/12/21 03:04:12;;;;;;;1.13;1.10;;;;;;;;;;5021402;28;20681;-72
2023/12/21 03:06:40;;;;;;;1.20;1.10;;;;;;;;;;5019566;28;20250;-71
2023/12/21 03:09:07;;;;;;;1.30;1.30;;;;;;;;;;5020976;28;20578;-72
2023/12/21 03:11:34;;;;;;;1.23;1.23;;;;;;;;;;5026113;28;20415;-71
2023/12/21 03:14:02;;;;;;;1.30;1.30;;;;;;;;;;5020205;28;20223;-71
2023/12/21 03:16:29;;;;;;;1.50;1.40;;;;;;;;;;5019034;28;20594;-71
2023/12/21 03:18:56;;;;;;;1.50;1.40;;;;;;;;;;5008739;28;20572;-71
2023/12/21 03:21:23;;;;;;;1.20;1.20;;;;;;;;;;4999982;28;20675;-70
2023/12/21 03:23:51;;;;;;;1.30;1.30;;;;;;;;;;5021640;28;20714;-73
2023/12/21 03:26:18;;;;;;;1.70;1.60;;;;;;;;;;5013950;28;20207;-72
2023/12/21 03:28:45;;;;;;;1.50;1.50;;;;;;;;;;5018496;28;20330;-73
2023/12/21 03:31:16;;;;;;;1.70;1.60;;;;;;;;;;5017523;28;20321;-70
2023/12/21 03:33:43;;;;;;;1.90;1.80;;;;;;;;;;5015546;28;20378;-73
2023/12/21 03:36:12;;;;;;;1.50;1.40;;;;;;;;;;5013178;28;20204;-69
2023/12/21 03:38:39;;;;;;;1.40;1.40;;;;;;;;;;5016372;28;20573;-72
2023/12/21 03:41:07;;;;;;;1.53;1.53;;;;;;;;;;5014339;28;20237;-71
2023/12/21 03:43:34;;;;;;;1.43;1.43;;;;;;;;;;5001682;28;20211;-70
2023/12/21 03:46:02;;;;;;;1.37;1.33;;;;;;;;;;5017298;28;20204;-71
2023/12/21 03:48:29;;;;;;;1.40;1.40;;;;;;;;;;5005868;28;20221;-71
2023/12/21 03:50:56;;;;;;;1.57;1.57;;;;;;;;;;5014734;28;20227;-72
2023/12/21 03:53:23;;;;;;;1.60;1.50;;;;;;;;;;5016544;28;21060;-72
2023/12/21 03:55:51;;;;;;;1.60;1.50;;;;;;;;;;5015053;28;20285;-71
2023/12/21 03:58:18;;;;;;;1.87;1.60;;;;;;;;;;5016185;28;20202;-72
2023/12/21 04:00:45;;;;;;;1.60;1.50;;;;;;;;;;5019732;28;20223;-71
2023/12/21 04:03:13;;;;;;;1.70;1.70;;;;;;;;;;5022731;28;20199;-71
2023/12/21 04:05:40;;;;;;;1.57;1.47;;;;;;;;;;5020659;28;20207;-71
2023/12/21 04:08:07;;;;;;;1.80;1.70;;;;;;;;;;5020380;28;20203;-71
2023/12/21 04:10:35;;;;;;;2.03;1.87;;;;;;;;;;5012673;28;20702;-71
2023/12/21 04:13:02;;;;;;;1.67;1.60;;;;;;;;;;5022317;28;20673;-71
2023/12/21 04:15:30;;;;;;;1.87;1.77;;;;;;;;;;5023739;28;20647;-72
2023/12/21 04:17:57;;;;;;;2.00;1.90;;;;;;;;;;5022178;28;20202;-72
2023/12/21 04:20:24;;;;;;;2.10;1.80;;;;;;;;;;5012268;28;20293;-72
2023/12/21 04:22:52;;;;;;;2.00;1.90;;;;;;;;;;5001772;28;21214;-72
2023/12/21 04:25:19;;;;;;;2.20;2.00;;;;;;;;;;5014082;28;20227;-72
2023/12/21 04:27:46;;;;;;;2.10;2.00;;;;;;;;;;5021639;28;20229;-73
2023/12/21 04:30:14;;;;;;;2.40;2.20;;;;;;;;;;5024476;28;20242;-71
2023/12/21 04:32:41;;;;;;;2.17;2.07;;;;;;;;;;5001301;28;20744;-70
2023/12/21 04:35:10;;;;;;;2.43;2.23;;;;;;;;;;5015564;28;20286;-72
2023/12/21 04:37:37;;;;;;;2.20;2.10;;;;;;;;;;5012145;28;20228;-70
2023/12/21 04:40:04;;;;;;;2.27;2.07;;;;;;;;;;4991855;28;20211;-72
2023/12/21 04:42:32;;;;;;;3.27;2.17;;;;;;;;;;5001765;28;20319;-72
2023/12/21 04:44:59;;;;;;;2.30;2.20;;;;;;;;;;5017068;28;20211;-71
2023/12/21 04:47:27;;;;;;;2.63;2.43;;;;;;;;;;5018524;28;20798;-71
2023/12/21 04:49:54;;;;;;;2.50;2.30;;;;;;;;;;5013439;28;20257;-70
2023/12/21 04:52:21;;;;;;;2.13;2.03;;;;;;;;;;5001989;28;20382;-73
2023/12/21 04:54:49;;;;;;;3.10;2.30;;;;;;;;;;5013786;28;20770;-73
2023/12/21 04:57:16;;;;;;;2.30;2.20;;;;;;;;;;4988302;28;20231;-70
2023/12/21 04:59:48;;;;;;;2.10;1.90;;;;;;;;;;5010961;28;20662;-72
2023/12/21 05:02:16;;;;;;;2.27;1.97;;;;;;;;;;5015745;28;20219;-73
2023/12/21 05:04:43;;;;;;;2.40;2.20;;;;;;;;;;5015656;28;20210;-71
2023/12/21 05:07:10;;;;;;;2.57;2.10;;;;;;;;;;5013279;28;20659;-71
2023/12/21 05:09:38;;;;;;;2.40;2.20;;;;;;;;;;5011529;28;20207;-70
2023/12/21 05:12:05;;;;;;;2.30;2.20;;;;;;;;;;5004710;28;20308;-71
2023/12/21 05:14:33;;;;;;;2.10;2.00;;;;;;;;;;5010633;28;20231;-72
2023/12/21 05:17:00;;;;;;;2.50;2.30;;;;;;;;;;5014279;28;20204;-71
2023/12/21 05:19:27;;;;;;;2.37;2.17;;;;;;;;;;5013475;28;20678;-71
2023/12/21 05:21:54;;;;;;;2.30;2.20;;;;;;;;;;5008266;28;20219;-70
2023/12/21 05:24:22;;;;;;;2.53;2.33;;;;;;;;;;5016148;28;20211;-71
2023/12/21 05:26:49;;;;;;;2.70;2.50;;;;;;;;;;5009071;28;20865;-72
2023/12/21 05:29:16;;;;;;;2.57;2.37;;;;;;;;;;5007015;28;20298;-71
2023/12/21 05:31:44;;;;;;;2.50;2.30;;;;;;;;;;5005130;28;20223;-73
2023/12/21 05:34:11;;;;;;;2.43;2.13;;;;;;;;;;5002388;28;20233;-73
2023/12/21 05:36:39;;;;;;;2.20;2.10;;;;;;;;;;5003080;28;20229;-70
2023/12/21 05:39:09;;;;;;;2.23;2.13;;;;;;;;;;5013659;28;20202;-72
2023/12/21 05:41:45;;;;;;;2.33;2.20;;;;;;;;;;5009550;28;20226;-71
2023/12/21 05:44:12;;;;;;;2.17;2.07;;;;;;;;;;4996441;28;20210;-71
2023/12/21 05:46:42;;;;;;;2.13;2.03;;;;;;;;;;5008484;28;20215;-71
2023/12/21 05:49:10;;;;;;;3.33;3.03;;;;;;;;;;5010525;28;20281;-71
2023/12/21 05:51:38;;;;;;;2.20;2.10;;;;;;;;;;5008522;28;20831;-71
2023/12/21 05:54:06;;;;;;;2.13;2.03;;;;;;;;;;5010945;28;20219;-72
2023/12/21 05:56:36;;;;;;;2.20;2.00;;;;;;;;;;5011663;28;20596;-71
2023/12/21 05:59:03;;;;;;;2.10;1.90;;;;;;;;;;5016903;28;20207;-73
2023/12/21 06:01:34;;;;;;;1.90;1.80;;;;;;;;;;4990771;28;20353;-70
2023/12/21 06:04:01;;;;;;;1.93;1.83;;;;;;;;;;5016591;28;20203;-70
2023/12/21 06:06:29;;;;;;;2.53;2.13;;;;;;;;;;5015923;28;20258;-70
2023/12/21 06:08:56;;;;;;;2.00;1.90;;;;;;;;;;5013410;28;20211;-72
2023/12/21 06:11:24;;;;;;;2.07;1.97;;;;;;;;;;5011507;28;20702;-71
2023/12/21 06:13:51;;;;;;;2.00;1.90;;;;;;;;;;5010014;28;20203;-72
2023/12/21 06:16:18;;;;;;;2.50;2.37;;;;;;;;;;5013159;28;20302;-70
2023/12/21 06:18:48;;;;;;;2.47;2.37;;;;;;;;;;5005250;28;20345;-73
2023/12/21 06:21:15;;;;;;;2.00;1.90;;;;;;;;;;5017592;28;20226;-72
2023/12/21 06:23:43;;;;;;;2.10;1.90;;;;;;;;;;5005417;28;20200;-72
2023/12/21 06:26:10;;;;;;;1.90;1.80;;;;;;;;;;5017097;28;20214;-72
2023/12/21 06:28:37;;;;;;;1.80;1.70;;;;;;;;;;5016848;28;20199;-70
2023/12/21 06:31:05;;;;;;;1.60;1.60;;;;;;;;;;5008499;28;20285;-72
2023/12/21 06:33:33;;;;;;;1.80;1.70;;;;;;;;;;4999234;28;20214;-73
2023/12/21 06:36:00;;;;;;;1.70;1.60;;;;;;;;;;5001681;28;20254;-70
2023/12/21 06:38:29;;;;;;;1.60;1.50;;;;;;;;;;5012572;28;20795;-70
2023/12/21 06:40:58;;;;;;;1.53;1.53;;;;;;;;;;5015571;28;20231;-74
2023/12/21 06:43:25;;;;;;;1.60;1.50;;;;;;;;;;5013784;28;20617;-72
2023/12/21 06:45:53;;;;;;;1.60;1.50;;;;;;;;;;5009944;28;20313;-73
2023/12/21 06:48:20;;;;;;;1.30;1.30;;;;;;;;;;5012928;28;20203;-72
2023/12/21 06:50:47;;;;;;;2.07;1.50;;;;;;;;;;5010938;28;20237;-72
2023/12/21 06:53:15;;;;;;;2.10;1.40;;;;;;;;;;5015123;28;20219;-72
2023/12/21 06:55:43;;;;;;;1.37;1.20;;;;;;;;;;5009298;28;20306;-72
2023/12/21 06:58:11;;;;;;;1.30;1.30;;;;;;;;;;5008687;28;20200;-72
2023/12/21 07:00:38;;;;;;;1.70;1.60;;;;;;;;;;5013997;28;20223;-72
2023/12/21 07:03:06;;;;;;;2.23;2.13;;;;;;;;;;4999881;28;20230;-72
2023/12/21 07:05:33;;;;;;;4.23;3.53;;;;;;;;;;5013756;28;20218;-73
2023/12/21 07:08:02;;;;;;;6.13;5.03;;;;;;;;;;5024573;28;20213;-71
2023/12/21 07:10:29;;;;;;;1.40;1.40;;;;;;;;;;5027889;28;20290;-71
2023/12/21 07:12:57;;;;;;;2.07;1.97;;;;;;;;;;5025701;28;20200;-71
2023/12/21 07:15:25;;;;;;;3.47;3.20;;;;;;;;;;5024636;28;20219;-70
2023/12/21 07:17:52;;;;;;;2.70;2.50;;;;;;;;;;5022976;28;20228;-72
2023/12/21 07:20:24;;;;;;;4.57;3.97;;;;;;;;;;5024969;28;20250;-71
2023/12/21 07:22:51;;;;;;;2.97;2.77;;;;;;;;;;5024422;28;20586;-71
2023/12/21 07:25:21;;;;;;;1.87;1.77;;;;;;;;;;5019243;28;20750;-72
2023/12/21 07:27:54;;;;;;;2.57;2.47;;;;;;;;;;5017252;28;20214;-72
2023/12/21 07:30:21;;;;;;;3.00;2.80;;;;;;;;;;5004159;28;20206;-70
2023/12/21 07:32:49;;;;;;;1.60;1.50;;;;;;;;;;5023598;28;20203;-72
2023/12/21 07:35:17;;;;;;;1.50;1.40;;;;;;;;;;5020674;28;20243;-69
2023/12/21 07:37:45;;;;;;;1.63;1.57;;;;;;;;;;5012684;28;20294;-70
2023/12/21 07:40:14;;;;;;;1.20;1.20;;;;;;;;;;5019960;28;20297;-70
2023/12/21 07:42:41;;;;;;;1.40;1.40;;;;;;;;;;5016280;28;20210;-71
2023/12/21 07:45:09;;;;;;;1.33;1.30;;;;;;;;;;5011167;28;20615;-72
2023/12/21 07:47:36;;;;;;;1.70;1.60;;;;;;;;;;4991161;28;20521;-70
2023/12/21 07:50:03;;;;;;;1.63;1.50;;;;;;;;;;5016222;28;20203;-71
2023/12/21 07:52:31;;;;;;;1.30;1.30;;;;;;;;;;5012671;28;20574;-70
2023/12/21 07:54:59;;;;;;;1.20;1.20;;;;;;;;;;5015436;28;20386;-73
2023/12/21 07:57:27;;;;;;;1.23;1.23;;;;;;;;;;5008636;28;20203;-71
2023/12/21 07:59:54;;;;;;;1.30;1.30;;;;;;;;;;5009388;28;20221;-72
2023/12/21 08:02:21;;;;;;;1.30;1.30;;;;;;;;;;5012638;28;20927;-71
2023/12/21 08:04:49;;;;;;;1.10;1.10;;;;;;;;;;5011472;28;20210;-71
2023/12/21 08:07:16;;;;;;;1.10;1.10;;;;;;;;;;4996296;28;20214;-72
2023/12/21 08:09:45;;;;;;;1.23;1.23;;;;;;;;;;5013791;28;20203;-70
2023/12/21 08:12:14;;;;;;;2.37;1.83;;;;;;;;;;5003744;28;20226;-70
2023/12/21 08:14:41;;;;;;;1.27;1.17;;;;;;;;;;5008697;28;20370;-70
2023/12/21 08:17:10;;;;;;;1.10;1.10;;;;;;;;;;5013306;28;20673;-72
2023/12/21 08:19:38;;;;;;;1.63;1.60;;;;;;;;;;5018180;28;20294;-72
2023/12/21 08:22:05;;;;;;;1.20;1.20;;;;;;;;;;4989254;28;20220;-72
2023/12/21 08:24:33;;;;;;;1.20;1.20;;;;;;;;;;5017002;28;20199;-70
2023/12/21 08:27:00;;;;;;;0.93;0.93;;;;;;;;;;5007020;28;20204;-71
2023/12/21 08:29:28;;;;;;;1.00;1.00;;;;;;;;;;4986021;28;20203;-72
2023/12/21 08:31:55;;;;;;;1.10;1.10;;;;;;;;;;5011260;28;20240;-72
2023/12/21 08:34:23;;;;;;;1.10;1.10;;;;;;;;;;5019798;28;20645;-72
2023/12/21 08:36:50;;;;;;;1.10;1.10;;;;;;;;;;5013442;28;20203;-72
2023/12/21 08:39:17;;;;;;;1.00;1.00;;;;;;;;;;5002709;28;20623;-73
2023/12/21 08:41:45;;;;;;;0.90;0.90;;;;;;;;;;5002317;28;20223;-71
2023/12/21 08:44:12;;;;;;;0.90;0.90;;;;;;;;;;5008293;28;20687;-73
2023/12/21 08:46:43;;;;;;;0.90;0.90;;;;;;;;;;5012034;28;20663;-71
2023/12/21 08:49:12;;;;;;;1.20;1.20;;;;;;;;;;5011136;28;20280;-72
2023/12/21 08:51:40;;;;;;;1.53;1.43;;;;;;;;;;5015267;28;20731;-71
2023/12/21 08:54:08;;;;;;;2.33;1.30;;;;;;;;;;5014342;28;20203;-72
2023/12/21 08:56:42;;;;;;;1.20;1.20;;;;;;;;;;4996450;28;20279;-73
2023/12/21 08:59:09;;;;;;;1.70;1.60;;;;;;;;;;5010265;28;20209;-72
2023/12/21 09:01:37;;;;;;;2.33;2.03;;;;;;;;;;5010984;28;20589;-72
2023/12/21 09:04:05;;;;;;;1.57;1.47;;;;;;;;;;5002875;28;20204;-72
2023/12/21 09:06:33;;;;;;;0.87;0.87;;;;;;;;;;5018407;28;20674;-73
2023/12/21 09:09:00;;;;;;;0.90;0.90;;;;;;;;;;4994866;28;20225;-72
2023/12/21 09:11:28;;;;;;;0.90;0.90;;;;;;;;;;5006662;28;20574;-72
2023/12/21 09:13:55;;;;;;;0.80;0.80;;;;;;;;;;5011722;28;20210;-72
2023/12/21 09:16:23;;;;;;;0.80;0.80;;;;;;;;;;5007110;28;20315;-71
2023/12/21 09:18:52;;;;;;;0.80;0.80;;;;;;;;;;5002528;28;20254;-72
2023/12/21 09:21:19;;;;;;;1.03;1.03;;;;;;;;;;5008466;28;20230;-71
2023/12/21 09:23:46;;;;;;;0.90;0.90;;;;;;;;;;5010651;28;20203;-73
2023/12/21 09:26:14;;;;;;;0.90;0.90;;;;;;;;;;5010539;28;20569;-71
2023/12/21 09:28:41;;;;;;;0.70;0.70;;;;;;;;;;5021789;28;20204;-73
2023/12/21 09:31:12;;;;;;;1.13;0.80;;;;;;;;;;5004463;28;20227;-72
2023/12/21 09:33:40;;;;;;;0.80;0.80;;;;;;;;;;5020439;28;20275;-71
2023/12/21 09:36:09;;;;;;;0.80;0.80;;;;;;;;;;5008765;28;20800;-70
2023/12/21 09:38:36;;;;;;;0.83;0.83;;;;;;;;;;5002341;28;20194;-72
2023/12/21 09:41:07;;;;;;;0.90;0.90;;;;;;;;;;5015212;28;20227;-72
2023/12/21 09:43:34;;;;;;;0.80;0.80;;;;;;;;;;5015830;28;20200;-72
2023/12/21 09:46:01;;;;;;;1.17;0.87;;;;;;;;;;5016662;28;20211;-72
2023/12/21 09:48:30;;;;;;;0.80;0.80;;;;;;;;;;5011856;28;20202;-73
2023/12/21 09:51:04;;;;;;;0.80;0.80;;;;;;;;;;5009511;28;20230;-71
2023/12/21 09:53:33;;;;;;;0.90;0.90;;;;;;;;;;5021119;28;20290;-71
2023/12/21 09:56:01;;;;;;;0.83;0.80;;;;;;;;;;5012181;28;20234;-73
2023/12/21 09:58:31;;;;;;;0.90;0.90;;;;;;;;;;5015935;28;20234;-71
2023/12/21 10:00:59;;;;;;;0.70;0.70;;;;;;;;;;4993339;28;20313;-73
2023/12/21 10:03:26;;;;;;;1.00;1.00;;;;;;;;;;5013619;28;20206;-72
2023/12/21 10:05:53;;;;;;;0.80;0.80;;;;;;;;;;5015186;28;20214;-73
2023/12/21 10:08:22;;;;;;;0.80;0.80;;;;;;;;;;5010681;28;20212;-72
2023/12/21 10:10:50;;;;;;;1.10;0.70;;;;;;;;;;5009835;28;20697;-71
2023/12/21 10:13:17;;;;;;;0.70;0.70;;;;;;;;;;5014897;28;20410;-71
2023/12/21 10:15:46;;;;;;;0.70;0.70;;;;;;;;;;5012041;28;20317;-71
2023/12/21 10:18:14;;;;;;;0.87;0.87;;;;;;;;;;5002154;28;20214;-72
2023/12/21 10:20:41;;;;;;;0.70;0.70;;;;;;;;;;5010278;28;20706;-72
2023/12/21 10:23:09;;;;;;;0.70;0.70;;;;;;;;;;5004339;28;20202;-70
2023/12/21 10:25:38;;;;;;;0.97;0.70;;;;;;;;;;5007385;28;20202;-71
2023/12/21 10:28:05;;;;;;;0.70;0.70;;;;;;;;;;5021175;28;20211;-70
2023/12/21 10:30:33;;;;;;;0.70;0.70;;;;;;;;;;5021799;28;20278;-72
2023/12/21 10:33:03;;;;;;;0.90;0.90;;;;;;;;;;5011879;28;20253;-72
2023/12/21 10:35:30;;;;;;;0.70;0.70;;;;;;;;;;5011846;28;20714;-72
2023/12/21 10:37:58;;;;;;;0.70;0.70;;;;;;;;;;5004381;28;20689;-71
2023/12/21 10:40:25;;;;;;;0.80;0.80;;;;;;;;;;5013612;28;20207;-70
2023/12/21 10:42:53;;;;;;;0.70;0.70;;;;;;;;;;5006656;28;20208;-72
2023/12/21 10:45:21;;;;;;;0.70;0.70;;;;;;;;;;5009202;28;20200;-73
2023/12/21 10:48:02;;;;;;;0.77;0.77;;;;;;;;;;5015631;28;20223;-71
2023/12/21 10:50:30;;;;;;;0.90;0.90;;;;;;;;;;5014306;28;20202;-73
2023/12/21 10:52:59;;;;;;;0.70;0.70;;;;;;;;;;5002837;28;21406;-74
2023/12/21 10:55:27;;;;;;;0.70;0.70;;;;;;;;;;5020501;28;20227;-72
2023/12/21 10:57:55;;;;;;;0.60;0.60;;;;;;;;;;4997948;28;20207;-72
2023/12/21 11:00:23;;;;;;;0.60;0.60;;;;;;;;;;5017917;28;20653;-71
2023/12/21 11:02:52;;;;;;;0.93;0.67;;;;;;;;;;5020507;28;20282;-72
2023/12/21 11:05:22;;;;;;;0.67;0.67;;;;;;;;;;5018632;28;20726;-72
2023/12/21 11:07:51;;;;;;;0.60;0.60;;;;;;;;;;4992160;28;20226;-71
2023/12/21 11:10:18;;;;;;;0.70;0.70;;;;;;;;;;4995804;28;20211;-72
2023/12/21 11:12:46;;;;;;;0.77;0.77;;;;;;;;;;5017872;28;20202;-73
2023/12/21 11:15:18;;;;;;;0.70;0.70;;;;;;;;;;5016934;28;20211;-72
2023/12/21 11:17:49;;;;;;;1.53;0.80;;;;;;;;;;5013847;28;20678;-72
2023/12/21 11:20:19;;;;;;;1.20;0.80;;;;;;;;;;5018046;28;21596;-71
2023/12/21 11:22:47;;;;;;;1.80;0.87;;;;;;;;;;5007221;28;20211;-72
2023/12/21 11:25:21;;;;;;;0.80;0.80;;;;;;;;;;5003449;28;20218;-73
2023/12/21 11:27:48;;;;;;;0.80;0.80;;;;;;;;;;5010975;28;20245;-71
2023/12/21 11:30:16;;;;;;;0.80;0.80;;;;;;;;;;5015020;28;20206;-72
2023/12/21 11:32:44;;;;;;;0.80;0.80;;;;;;;;;;5013997;28;20286;-72
2023/12/21 11:35:19;;;;;;;0.80;0.80;;;;;;;;;;5010572;28;20762;-70
2023/12/21 11:37:54;;;;;;;0.77;0.77;;;;;;;;;;5011411;28;20670;-71
2023/12/21 11:40:22;;;;;;;0.70;0.70;;;;;;;;;;5012116;28;20598;-72
2023/12/21 11:42:49;;;;;;;0.80;0.80;;;;;;;;;;4985314;28;20211;-71
2023/12/21 11:45:24;;;;;;;0.93;0.73;;;;;;;;;;5007396;28;20617;-73
2023/12/21 11:47:55;;;;;;;0.63;0.63;;;;;;;;;;4998575;28;20639;-71
2023/12/21 11:50:26;;;;;;;0.80;0.80;;;;;;;;;;5033235;28;20203;-71
2023/12/21 11:53:23;;;;;;;1.17;0.70;;;;;;;;;;5023099;28;20199;-71
2023/12/21 11:56:13;;;;;;;0.80;0.80;;;;;;;;;;5008149;28;20231;-70
2023/12/21 11:58:41;;;;;;;0.70;0.70;;;;;;;;;;5017824;28;20199;-71
2023/12/21 12:01:20;;;;;;;0.80;0.80;;;;;;;;;;5027126;28;20227;-69
2023/12/21 12:03:48;;;;;;;0.60;0.60;;;;;;;;;;5022017;28;20203;-70
2023/12/21 12:06:15;;;;;;;0.60;0.60;;;;;;;;;;5032494;28;20198;-69
2023/12/21 12:08:43;;;;;;;0.60;0.60;;;;;;;;;;5024667;28;20663;-71
2023/12/21 12:11:10;;;;;;;0.77;0.70;;;;;;;;;;5028806;28;20313;-71
2023/12/21 12:13:38;;;;;;;0.60;0.60;;;;;;;;;;5029561;28;20259;-69
2023/12/21 12:16:07;;;;;;;0.70;0.70;;;;;;;;;;5019006;28;20281;-70
2023/12/21 12:18:35;;;;;;;0.60;0.60;;;;;;;;;;5021118;28;20211;-70
2023/12/21 12:21:04;;;;;;;0.70;0.70;;;;;;;;;;5027107;28;20301;-70
2023/12/21 12:23:32;;;;;;;0.60;0.60;;;;;;;;;;5025993;28;20203;-71
2023/12/21 12:25:59;;;;;;;0.70;0.70;;;;;;;;;;5025942;28;20630;-69
2023/12/21 12:28:27;;;;;;;0.83;0.60;;;;;;;;;;5020926;28;20207;-71
2023/12/21 12:30:55;;;;;;;1.60;1.50;;;;;;;;;;5021019;28;20277;-71
2023/12/21 12:33:22;;;;;;;0.90;0.90;;;;;;;;;;5021569;28;20214;-70
2023/12/21 12:35:50;;;;;;;0.70;0.70;;;;;;;;;;5023717;28;20223;-71
2023/12/21 12:38:18;;;;;;;0.70;0.70;;;;;;;;;;5022828;28;20214;-71
2023/12/21 12:40:50;;;;;;;0.80;0.80;;;;;;;;;;5007058;28;20733;-71
2023/12/21 12:43:18;;;;;;;0.90;0.90;;;;;;;;;;5026193;28;20647;-71
2023/12/21 12:45:47;;;;;;;0.70;0.70;;;;;;;;;;5026537;28;20240;-71
2023/12/21 12:48:18;;;;;;;0.63;0.63;;;;;;;;;;5030883;28;20693;-71
2023/12/21 12:50:46;;;;;;;0.73;0.73;;;;;;;;;;5024732;28;20235;-69
2023/12/21 12:53:16;;;;;;;0.90;0.90;;;;;;;;;;5014894;28;20302;-70
2023/12/21 12:55:50;;;;;;;0.70;0.70;;;;;;;;;;5014683;28;20574;-70
2023/12/21 12:58:18;;;;;;;1.33;1.27;;;;;;;;;;5023793;28;20194;-68
2023/12/21 13:00:45;;;;;;;1.07;1.07;;;;;;;;;;5015588;28;20294;-71
2023/12/21 13:03:12;;;;;;;1.20;1.20;;;;;;;;;;5022612;28;20302;-69
2023/12/21 13:05:40;;;;;;;1.20;1.20;;;;;;;;;;5014012;28;20258;-70
2023/12/21 13:08:08;;;;;;;0.70;0.70;;;;;;;;;;5030513;28;20260;-70
2023/12/21 13:10:35;;;;;;;0.83;0.83;;;;;;;;;;5007145;28;20567;-70
2023/12/21 13:13:03;;;;;;;0.80;0.80;;;;;;;;;;5027914;28;20207;-71
2023/12/21 13:15:30;;;;;;;0.80;0.80;;;;;;;;;;5008031;28;20219;-70
2023/12/21 13:17:58;;;;;;;0.83;0.83;;;;;;;;;;5027847;28;20607;-70
2023/12/21 13:20:25;;;;;;;0.70;0.70;;;;;;;;;;5013000;28;20195;-72
2023/12/21 13:22:52;;;;;;;0.60;0.60;;;;;;;;;;5024894;28;20562;-70
2023/12/21 13:25:20;;;;;;;0.60;0.60;;;;;;;;;;5009438;28;20671;-72
2023/12/21 13:27:52;;;;;;;0.70;0.70;;;;;;;;;;5030287;28;20230;-70
2023/12/21 13:30:42;;;;;;;0.70;0.70;;;;;;;;;;5031077;28;20655;-70
2023/12/21 13:33:11;;;;;;;0.73;0.73;;;;;;;;;;5005792;28;20210;-67
2023/12/21 13:35:39;;;;;;;0.70;0.70;;;;;;;;;;5033092;28;20383;-68
2023/12/21 13:38:07;;;;;;;0.60;0.60;;;;;;;;;;5030303;28;20679;-68
2023/12/21 13:40:36;;;;;;;0.60;0.60;;;;;;;;;;5015360;28;20214;-67
2023/12/21 13:43:06;;;;;;;0.60;0.60;;;;;;;;;;5033147;28;20263;-67
2023/12/21 13:45:35;;;;;;;0.63;0.60;;;;;;;;;;5030291;28;20203;-68
2023/12/21 13:48:04;;;;;;;0.63;0.63;;;;;;;;;;5031114;28;20245;-67
2023/12/21 13:50:35;;;;;;;1.27;0.80;;;;;;;;;;5028107;28;20246;-69
2023/12/21 13:53:03;;;;;;;0.90;0.90;;;;;;;;;;5022187;28;20207;-70
2023/12/21 13:55:32;;;;;;;0.80;0.80;;;;;;;;;;5024226;28;20210;-67
2023/12/21 13:58:00;;;;;;;0.70;0.70;;;;;;;;;;5024780;28;20876;-70
2023/12/21 14:00:28;;;;;;;0.63;0.63;;;;;;;;;;5024915;28;20248;-72
2023/12/21 14:02:58;;;;;;;0.80;0.80;;;;;;;;;;5022770;28;20203;-69
2023/12/21 14:05:26;;;;;;;0.63;0.63;;;;;;;;;;5028307;28;20802;-70
2023/12/21 14:07:54;;;;;;;1.70;1.47;;;;;;;;;;5025191;28;20203;-69
2023/12/21 14:10:21;;;;;;;1.73;1.63;;;;;;;;;;5033861;28;20219;-69
2023/12/21 14:12:49;;;;;;;0.87;0.87;;;;;;;;;;5022205;28;20584;-73
2023/12/21 14:15:24;;;;;;;0.80;0.80;;;;;;;;;;5017388;28;20225;-71
2023/12/21 14:17:52;;;;;;;0.70;0.70;;;;;;;;;;5020797;28;20233;-73
2023/12/21 14:20:23;;;;;;;1.00;1.00;;;;;;;;;;5012781;28;20207;-72
2023/12/21 14:22:51;;;;;;;0.90;0.90;;;;;;;;;;4998646;28;20210;-73
2023/12/21 14:25:18;;;;;;;0.70;0.70;;;;;;;;;;5015722;28;20667;-72
2023/12/21 14:27:47;;;;;;;1.27;1.27;;;;;;;;;;5022258;28;20199;-70
2023/12/21 14:30:15;;;;;;;0.93;0.93;;;;;;;;;;5021315;28;20210;-71
2023/12/21 14:32:44;;;;;;;1.60;1.17;;;;;;;;;;5016314;28;20603;-71
2023/12/21 14:35:12;;;;;;;0.70;0.70;;;;;;;;;;5015277;28;20689;-72
2023/12/21 14:37:39;;;;;;;0.90;0.90;;;;;;;;;;5011395;28;20298;-72
2023/12/21 14:40:07;;;;;;;0.80;0.80;;;;;;;;;;5011353;28;20292;-73
2023/12/21 14:42:34;;;;;;;0.90;0.90;;;;;;;;;;5020041;28;20219;-71
2023/12/21 14:45:02;;;;;;;1.37;1.00;;;;;;;;;;5018746;28;20199;-70
2023/12/21 14:47:30;;;;;;;0.87;0.87;;;;;;;;;;5018044;28;20241;-72
2023/12/21 14:49:58;;;;;;;0.90;0.90;;;;;;;;;;5013006;28;20214;-72